Terminal Aerodrome Forecast
Issued by NWS Milwaukee/Sullivan, WI

Home | Current Version | Previous Version | Text Only | Print | Product List | Glossary On
Versions: 1 2 3 4 5 6 7 8 9 10 11 12 13 14 15 16 17 18 19 20 21 22 23 24 25 26 27 28 29 30 31 32 33 34 35 36 37 38 39 40 41 42 43 44 45 46 47 48 49 50
651
FTUS43 KMKX 302132 AAB
TAFMKE
TAF AMD
KMKE 302132Z 3022/0124 03012KT 6SM -RA SCT030 BKN050 OVC080
     FM010000 03012KT 3SM RA OVC030
     FM010100 04012KT 3SM RA OVC015
     FM010300 04012KT 5SM RA OVC008
     FM010600 04014KT P6SM VCSH OVC008
     FM011000 03013KT P6SM VCSH OVC005
     FM011700 03013KT P6SM VCSH OVC008=

USA.gov is the U.S. government's official web portal to all federal, state and local government web resources and services.